sensor_id;sensor_type;location;lat;lon;timestamp;P1;durP1;ratioP1;P2;durP2;ratioP2
76896;SDS011;65856;52.178;21.176;2023-12-28T00:02:12;59.10;;;21.50;;
76896;SDS011;65856;52.178;21.176;2023-12-28T00:04:38;52.00;;;21.50;;
76896;SDS011;65856;52.178;21.176;2023-12-28T00:07:04;54.10;;;21.10;;
76896;SDS011;65856;52.178;21.176;2023-12-28T00:09:29;49.30;;;20.00;;
76896;SDS011;65856;52.178;21.176;2023-12-28T00:11:54;51.50;;;19.70;;
76896;SDS011;65856;52.178;21.176;2023-12-28T00:14:20;47.30;;;19.30;;
76896;SDS011;65856;52.178;21.176;2023-12-28T00:16:46;49.60;;;19.90;;
76896;SDS011;65856;52.178;21.176;2023-12-28T00:19:11;44.60;;;17.50;;
76896;SDS011;65856;52.178;21.176;2023-12-28T00:21:36;40.20;;;16.50;;
76896;SDS011;65856;52.178;21.176;2023-12-28T00:24:03;37.40;;;16.70;;
76896;SDS011;65856;52.178;21.176;2023-12-28T00:26:28;37.90;;;16.40;;
76896;SDS011;65856;52.178;21.176;2023-12-28T00:28:54;38.80;;;16.80;;
76896;SDS011;65856;52.178;21.176;2023-12-28T00:31:19;35.90;;;16.00;;
76896;SDS011;65856;52.178;21.176;2023-12-28T00:33:45;37.60;;;16.10;;
76896;SDS011;65856;52.178;21.176;2023-12-28T00:36:10;33.40;;;14.80;;
76896;SDS011;65856;52.178;21.176;2023-12-28T00:38:36;35.60;;;14.30;;
76896;SDS011;65856;52.178;21.176;2023-12-28T00:41:01;32.40;;;14.00;;
76896;SDS011;65856;52.178;21.176;2023-12-28T00:43:26;33.90;;;14.50;;
76896;SDS011;65856;52.178;21.176;2023-12-28T00:45:52;38.00;;;13.90;;
76896;SDS011;65856;52.178;21.176;2023-12-28T00:48:17;36.70;;;13.40;;
76896;SDS011;65856;52.178;21.176;2023-12-28T00:50:42;33.70;;;13.50;;
76896;SDS011;65856;52.178;21.176;2023-12-28T00:53:08;27.60;;;13.00;;
76896;SDS011;65856;52.178;21.176;2023-12-28T00:55:33;30.00;;;12.20;;
76896;SDS011;65856;52.178;21.176;2023-12-28T00:57:58;31.80;;;11.90;;
76896;SDS011;65856;52.178;21.176;2023-12-28T01:00:24;27.40;;;12.10;;
76896;SDS011;65856;52.178;21.176;2023-12-28T01:02:49;26.30;;;12.00;;
76896;SDS011;65856;52.178;21.176;2023-12-28T01:05:16;28.40;;;12.00;;
76896;SDS011;65856;52.178;21.176;2023-12-28T01:07:42;30.20;;;12.00;;
76896;SDS011;65856;52.178;21.176;2023-12-28T01:10:07;30.10;;;12.40;;
76896;SDS011;65856;52.178;21.176;2023-12-28T01:12:33;22.60;;;11.00;;
76896;SDS011;65856;52.178;21.176;2023-12-28T01:14:58;30.40;;;11.20;;
76896;SDS011;65856;52.178;21.176;2023-12-28T01:17:24;26.50;;;11.00;;
76896;SDS011;65856;52.178;21.176;2023-12-28T01:19:49;28.70;;;11.00;;
76896;SDS011;65856;52.178;21.176;2023-12-28T01:22:14;22.00;;;10.50;;
76896;SDS011;65856;52.178;21.176;2023-12-28T01:24:40;26.00;;;9.70;;
76896;SDS011;65856;52.178;21.176;2023-12-28T01:27:05;19.90;;;8.90;;
76896;SDS011;65856;52.178;21.176;2023-12-28T01:29:31;25.10;;;9.40;;
76896;SDS011;65856;52.178;21.176;2023-12-28T01:31:57;21.80;;;9.80;;
76896;SDS011;65856;52.178;21.176;2023-12-28T01:34:23;22.90;;;9.00;;
76896;SDS011;65856;52.178;21.176;2023-12-28T01:36:48;20.60;;;8.70;;
76896;SDS011;65856;52.178;21.176;2023-12-28T01:39:14;25.30;;;9.20;;
76896;SDS011;65856;52.178;21.176;2023-12-28T01:41:40;23.10;;;9.20;;
76896;SDS011;65856;52.178;21.176;2023-12-28T01:44:06;22.50;;;9.50;;
76896;SDS011;65856;52.178;21.176;2023-12-28T01:46:33;20.10;;;8.70;;
76896;SDS011;65856;52.178;21.176;2023-12-28T01:48:58;24.70;;;9.60;;
76896;SDS011;65856;52.178;21.176;2023-12-28T01:51:25;21.10;;;8.40;;
76896;SDS011;65856;52.178;21.176;2023-12-28T01:53:51;29.40;;;10.00;;
76896;SDS011;65856;52.178;21.176;2023-12-28T01:56:18;20.10;;;8.90;;
76896;SDS011;65856;52.178;21.176;2023-12-28T01:58:44;21.20;;;8.30;;
76896;SDS011;65856;52.178;21.176;2023-12-28T02:01:10;21.60;;;8.50;;
76896;SDS011;65856;52.178;21.176;2023-12-28T02:03:36;22.90;;;9.00;;
76896;SDS011;65856;52.178;21.176;2023-12-28T02:06:02;22.50;;;9.30;;
76896;SDS011;65856;52.178;21.176;2023-12-28T02:08:27;21.70;;;9.60;;
76896;SDS011;65856;52.178;21.176;2023-12-28T02:10:53;19.70;;;8.20;;
76896;SDS011;65856;52.178;21.176;2023-12-28T02:13:21;22.20;;;8.40;;
76896;SDS011;65856;52.178;21.176;2023-12-28T02:15:53;20.50;;;8.70;;
76896;SDS011;65856;52.178;21.176;2023-12-28T02:18:24;18.50;;;8.00;;
76896;SDS011;65856;52.178;21.176;2023-12-28T02:20:57;20.70;;;8.40;;
76896;SDS011;65856;52.178;21.176;2023-12-28T02:23:23;17.60;;;7.70;;
76896;SDS011;65856;52.178;21.176;2023-12-28T02:25:48;19.00;;;7.40;;
76896;SDS011;65856;52.178;21.176;2023-12-28T02:28:14;17.80;;;7.60;;
76896;SDS011;65856;52.178;21.176;2023-12-28T02:30:39;20.50;;;8.40;;
76896;SDS011;65856;52.178;21.176;2023-12-28T02:33:07;20.80;;;7.80;;
76896;SDS011;65856;52.178;21.176;2023-12-28T02:40:58;18.00;;;7.30;;
76896;SDS011;65856;52.178;21.176;2023-12-28T02:43:24;16.90;;;7.50;;
76896;SDS011;65856;52.178;21.176;2023-12-28T02:45:49;20.50;;;7.70;;
76896;SDS011;65856;52.178;21.176;2023-12-28T02:48:14;16.50;;;7.10;;
76896;SDS011;65856;52.178;21.176;2023-12-28T02:50:40;21.40;;;7.30;;
76896;SDS011;65856;52.178;21.176;2023-12-28T02:53:05;17.30;;;6.40;;
76896;SDS011;65856;52.178;21.176;2023-12-28T02:55:31;18.50;;;7.50;;
76896;SDS011;65856;52.178;21.176;2023-12-28T02:57:57;17.10;;;6.80;;
76896;SDS011;65856;52.178;21.176;2023-12-28T03:00:26;19.30;;;7.20;;
76896;SDS011;65856;52.178;21.176;2023-12-28T03:02:52;16.60;;;6.80;;
76896;SDS011;65856;52.178;21.176;2023-12-28T03:05:18;16.10;;;6.70;;
76896;SDS011;65856;52.178;21.176;2023-12-28T03:07:43;17.30;;;7.50;;
76896;SDS011;65856;52.178;21.176;2023-12-28T03:10:09;24.20;;;7.10;;
76896;SDS011;65856;52.178;21.176;2023-12-28T03:12:36;22.60;;;7.20;;
76896;SDS011;65856;52.178;21.176;2023-12-28T03:15:03;16.40;;;6.80;;
76896;SDS011;65856;52.178;21.176;2023-12-28T03:17:29;18.70;;;7.10;;
76896;SDS011;65856;52.178;21.176;2023-12-28T03:19:56;15.50;;;6.40;;
76896;SDS011;65856;52.178;21.176;2023-12-28T03:22:23;19.90;;;7.20;;
76896;SDS011;65856;52.178;21.176;2023-12-28T03:24:48;20.50;;;6.40;;
76896;SDS011;65856;52.178;21.176;2023-12-28T03:27:14;21.90;;;6.60;;
76896;SDS011;65856;52.178;21.176;2023-12-28T03:29:41;16.20;;;6.10;;
76896;SDS011;65856;52.178;21.176;2023-12-28T03:32:07;16.70;;;6.50;;
76896;SDS011;65856;52.178;21.176;2023-12-28T03:34:33;19.40;;;6.60;;
76896;SDS011;65856;52.178;21.176;2023-12-28T03:36:59;16.90;;;6.50;;
76896;SDS011;65856;52.178;21.176;2023-12-28T03:39:25;17.00;;;6.30;;
76896;SDS011;65856;52.178;21.176;2023-12-28T03:41:50;19.20;;;6.20;;
76896;SDS011;65856;52.178;21.176;2023-12-28T03:44:17;13.80;;;6.00;;
76896;SDS011;65856;52.178;21.176;2023-12-28T03:46:43;16.50;;;6.80;;
76896;SDS011;65856;52.178;21.176;2023-12-28T03:49:09;15.20;;;6.10;;
76896;SDS011;65856;52.178;21.176;2023-12-28T03:51:34;11.20;;;4.90;;
76896;SDS011;65856;52.178;21.176;2023-12-28T03:54:00;18.70;;;6.50;;
76896;SDS011;65856;52.178;21.176;2023-12-28T03:56:26;16.50;;;5.50;;
76896;SDS011;65856;52.178;21.176;2023-12-28T03:58:52;18.20;;;6.30;;
76896;SDS011;65856;52.178;21.176;2023-12-28T04:01:19;19.40;;;6.00;;
76896;SDS011;65856;52.178;21.176;2023-12-28T04:03:46;14.20;;;5.90;;
76896;SDS011;65856;52.178;21.176;2023-12-28T04:06:12;15.50;;;5.80;;
76896;SDS011;65856;52.178;21.176;2023-12-28T04:08:38;15.40;;;5.50;;
76896;SDS011;65856;52.178;21.176;2023-12-28T04:11:04;11.70;;;4.70;;
76896;SDS011;65856;52.178;21.176;2023-12-28T04:13:30;15.80;;;5.90;;
76896;SDS011;65856;52.178;21.176;2023-12-28T04:15:55;17.30;;;6.00;;
76896;SDS011;65856;52.178;21.176;2023-12-28T04:18:21;17.30;;;6.00;;
76896;SDS011;65856;52.178;21.176;2023-12-28T04:20:46;16.20;;;5.90;;
76896;SDS011;65856;52.178;21.176;2023-12-28T04:23:12;17.80;;;6.50;;
76896;SDS011;65856;52.178;21.176;2023-12-28T04:25:37;16.80;;;6.60;;
76896;SDS011;65856;52.178;21.176;2023-12-28T04:28:03;18.30;;;6.10;;
76896;SDS011;65856;52.178;21.176;2023-12-28T04:30:28;18.20;;;6.20;;
76896;SDS011;65856;52.178;21.176;2023-12-28T04:32:54;19.00;;;6.30;;
76896;SDS011;65856;52.178;21.176;2023-12-28T04:35:19;15.00;;;6.30;;
76896;SDS011;65856;52.178;21.176;2023-12-28T04:37:45;15.30;;;6.20;;
76896;SDS011;65856;52.178;21.176;2023-12-28T04:40:10;17.20;;;6.10;;
76896;SDS011;65856;52.178;21.176;2023-12-28T04:42:36;16.70;;;5.90;;
76896;SDS011;65856;52.178;21.176;2023-12-28T04:45:01;18.90;;;6.40;;
76896;SDS011;65856;52.178;21.176;2023-12-28T04:47:27;15.10;;;6.50;;
76896;SDS011;65856;52.178;21.176;2023-12-28T04:49:52;17.10;;;7.00;;
76896;SDS011;65856;52.178;21.176;2023-12-28T04:52:18;13.60;;;6.10;;
76896;SDS011;65856;52.178;21.176;2023-12-28T04:54:43;16.80;;;6.60;;
76896;SDS011;65856;52.178;21.176;2023-12-28T04:57:08;19.30;;;6.50;;
76896;SDS011;65856;52.178;21.176;2023-12-28T04:59:40;19.60;;;7.60;;
76896;SDS011;65856;52.178;21.176;2023-12-28T05:02:06;18.30;;;6.90;;
76896;SDS011;65856;52.178;21.176;2023-12-28T05:04:32;14.60;;;6.30;;
76896;SDS011;65856;52.178;21.176;2023-12-28T05:06:57;18.20;;;7.40;;
76896;SDS011;65856;52.178;21.176;2023-12-28T05:09:23;17.90;;;7.30;;
76896;SDS011;65856;52.178;21.176;2023-12-28T05:11:48;19.40;;;6.90;;
76896;SDS011;65856;52.178;21.176;2023-12-28T05:14:14;18.30;;;6.80;;
76896;SDS011;65856;52.178;21.176;2023-12-28T05:16:39;19.80;;;7.50;;
76896;SDS011;65856;52.178;21.176;2023-12-28T05:19:05;19.20;;;7.30;;
76896;SDS011;65856;52.178;21.176;2023-12-28T05:21:30;20.50;;;7.30;;
76896;SDS011;65856;52.178;21.176;2023-12-28T05:23:55;17.70;;;7.00;;
76896;SDS011;65856;52.178;21.176;2023-12-28T05:26:21;18.40;;;7.30;;
76896;SDS011;65856;52.178;21.176;2023-12-28T05:28:47;21.50;;;7.70;;
76896;SDS011;65856;52.178;21.176;2023-12-28T05:31:13;18.90;;;7.20;;
76896;SDS011;65856;52.178;21.176;2023-12-28T05:33:38;19.90;;;7.60;;
76896;SDS011;65856;52.178;21.176;2023-12-28T05:36:05;18.40;;;7.50;;
76896;SDS011;65856;52.178;21.176;2023-12-28T05:38:31;21.30;;;8.40;;
76896;SDS011;65856;52.178;21.176;2023-12-28T05:40:56;19.00;;;8.00;;
76896;SDS011;65856;52.178;21.176;2023-12-28T05:43:21;18.90;;;7.80;;
76896;SDS011;65856;52.178;21.176;2023-12-28T05:45:47;18.10;;;7.60;;
76896;SDS011;65856;52.178;21.176;2023-12-28T05:48:12;18.10;;;8.20;;
76896;SDS011;65856;52.178;21.176;2023-12-28T05:50:37;21.30;;;7.80;;
76896;SDS011;65856;52.178;21.176;2023-12-28T05:53:03;19.10;;;8.00;;
76896;SDS011;65856;52.178;21.176;2023-12-28T05:55:28;18.10;;;7.60;;
76896;SDS011;65856;52.178;21.176;2023-12-28T05:57:54;24.40;;;8.00;;
76896;SDS011;65856;52.178;21.176;2023-12-28T06:00:19;19.20;;;7.30;;
76896;SDS011;65856;52.178;21.176;2023-12-28T06:02:45;19.90;;;7.70;;
76896;SDS011;65856;52.178;21.176;2023-12-28T06:05:12;17.50;;;7.90;;
76896;SDS011;65856;52.178;21.176;2023-12-28T06:07:37;22.00;;;7.60;;
76896;SDS011;65856;52.178;21.176;2023-12-28T06:10:03;21.50;;;8.40;;
76896;SDS011;65856;52.178;21.176;2023-12-28T06:12:29;19.90;;;9.20;;
76896;SDS011;65856;52.178;21.176;2023-12-28T06:14:55;20.90;;;9.10;;
76896;SDS011;65856;52.178;21.176;2023-12-28T06:17:20;23.80;;;8.70;;
76896;SDS011;65856;52.178;21.176;2023-12-28T06:19:46;20.50;;;8.70;;
76896;SDS011;65856;52.178;21.176;2023-12-28T06:22:11;22.80;;;9.20;;
76896;SDS011;65856;52.178;21.176;2023-12-28T06:24:38;23.00;;;9.60;;
76896;SDS011;65856;52.178;21.176;2023-12-28T06:27:04;18.50;;;8.90;;
76896;SDS011;65856;52.178;21.176;2023-12-28T06:29:30;20.90;;;8.80;;
76896;SDS011;65856;52.178;21.176;2023-12-28T06:31:55;21.80;;;8.80;;
76896;SDS011;65856;52.178;21.176;2023-12-28T06:34:20;25.10;;;8.70;;
76896;SDS011;65856;52.178;21.176;2023-12-28T06:36:46;21.30;;;8.50;;
76896;SDS011;65856;52.178;21.176;2023-12-28T06:39:11;19.70;;;7.50;;
76896;SDS011;65856;52.178;21.176;2023-12-28T06:41:36;28.80;;;9.70;;
76896;SDS011;65856;52.178;21.176;2023-12-28T06:44:02;22.70;;;9.00;;
76896;SDS011;65856;52.178;21.176;2023-12-28T06:46:28;19.80;;;8.70;;
76896;SDS011;65856;52.178;21.176;2023-12-28T06:48:53;17.40;;;7.60;;
76896;SDS011;65856;52.178;21.176;2023-12-28T06:51:19;20.10;;;8.80;;
76896;SDS011;65856;52.178;21.176;2023-12-28T06:53:46;21.40;;;9.20;;
76896;SDS011;65856;52.178;21.176;2023-12-28T06:56:11;21.00;;;9.70;;
76896;SDS011;65856;52.178;21.176;2023-12-28T06:58:37;20.80;;;8.50;;
76896;SDS011;65856;52.178;21.176;2023-12-28T07:01:03;20.00;;;8.90;;
76896;SDS011;65856;52.178;21.176;2023-12-28T07:03:29;19.00;;;8.40;;
76896;SDS011;65856;52.178;21.176;2023-12-28T07:05:58;20.10;;;9.00;;
76896;SDS011;65856;52.178;21.176;2023-12-28T07:08:26;23.00;;;8.50;;
76896;SDS011;65856;52.178;21.176;2023-12-28T07:10:52;24.80;;;9.20;;
76896;SDS011;65856;52.178;21.176;2023-12-28T07:13:17;20.90;;;8.90;;
76896;SDS011;65856;52.178;21.176;2023-12-28T07:15:43;20.00;;;8.00;;
76896;SDS011;65856;52.178;21.176;2023-12-28T07:18:08;17.60;;;7.70;;
76896;SDS011;65856;52.178;21.176;2023-12-28T07:20:33;19.30;;;7.60;;
76896;SDS011;65856;52.178;21.176;2023-12-28T07:22:59;21.50;;;8.50;;
76896;SDS011;65856;52.178;21.176;2023-12-28T07:25:24;19.80;;;7.80;;
76896;SDS011;65856;52.178;21.176;2023-12-28T07:27:50;19.70;;;8.70;;
76896;SDS011;65856;52.178;21.176;2023-12-28T07:30:15;18.70;;;8.50;;
76896;SDS011;65856;52.178;21.176;2023-12-28T07:32:42;19.20;;;8.00;;
76896;SDS011;65856;52.178;21.176;2023-12-28T07:35:08;19.40;;;8.10;;
76896;SDS011;65856;52.178;21.176;2023-12-28T07:37:34;22.70;;;9.60;;
76896;SDS011;65856;52.178;21.176;2023-12-28T07:40:00;22.60;;;8.60;;
76896;SDS011;65856;52.178;21.176;2023-12-28T07:42:27;18.00;;;7.60;;
76896;SDS011;65856;52.178;21.176;2023-12-28T07:44:52;21.80;;;8.80;;
76896;SDS011;65856;52.178;21.176;2023-12-28T07:47:17;20.90;;;8.10;;
76896;SDS011;65856;52.178;21.176;2023-12-28T07:49:43;17.80;;;8.10;;
76896;SDS011;65856;52.178;21.176;2023-12-28T07:52:08;17.30;;;8.10;;
76896;SDS011;65856;52.178;21.176;2023-12-28T07:54:34;18.40;;;7.60;;
76896;SDS011;65856;52.178;21.176;2023-12-28T07:56:59;18.80;;;7.50;;
76896;SDS011;65856;52.178;21.176;2023-12-28T07:59:25;19.60;;;8.50;;
76896;SDS011;65856;52.178;21.176;2023-12-28T08:01:50;20.30;;;8.40;;
76896;SDS011;65856;52.178;21.176;2023-12-28T08:04:16;19.70;;;8.90;;
76896;SDS011;65856;52.178;21.176;2023-12-28T08:06:41;21.50;;;8.70;;
76896;SDS011;65856;52.178;21.176;2023-12-28T08:09:07;19.40;;;8.00;;
76896;SDS011;65856;52.178;21.176;2023-12-28T08:11:34;21.00;;;9.00;;
76896;SDS011;65856;52.178;21.176;2023-12-28T08:13:59;21.00;;;9.10;;
76896;SDS011;65856;52.178;21.176;2023-12-28T08:16:25;21.70;;;9.10;;
76896;SDS011;65856;52.178;21.176;2023-12-28T08:18:51;22.50;;;9.00;;
76896;SDS011;65856;52.178;21.176;2023-12-28T08:21:17;20.60;;;9.10;;
76896;SDS011;65856;52.178;21.176;2023-12-28T08:23:42;15.90;;;8.60;;
76896;SDS011;65856;52.178;21.176;2023-12-28T08:26:08;15.50;;;8.10;;
76896;SDS011;65856;52.178;21.176;2023-12-28T08:28:33;19.50;;;8.60;;
76896;SDS011;65856;52.178;21.176;2023-12-28T08:30:58;19.80;;;8.50;;
76896;SDS011;65856;52.178;21.176;2023-12-28T08:33:24;18.70;;;8.60;;
76896;SDS011;65856;52.178;21.176;2023-12-28T08:35:50;19.70;;;8.00;;
76896;SDS011;65856;52.178;21.176;2023-12-28T08:38:16;21.00;;;9.10;;
76896;SDS011;65856;52.178;21.176;2023-12-28T08:40:41;20.50;;;9.20;;
76896;SDS011;65856;52.178;21.176;2023-12-28T08:43:07;21.00;;;9.30;;
76896;SDS011;65856;52.178;21.176;2023-12-28T08:45:35;21.40;;;8.90;;
76896;SDS011;65856;52.178;21.176;2023-12-28T08:48:01;18.50;;;8.30;;
76896;SDS011;65856;52.178;21.176;2023-12-28T08:50:26;21.90;;;8.80;;
76896;SDS011;65856;52.178;21.176;2023-12-28T08:52:52;21.00;;;8.70;;
76896;SDS011;65856;52.178;21.176;2023-12-28T08:55:17;19.80;;;9.10;;
76896;SDS011;65856;52.178;21.176;2023-12-28T08:57:43;19.70;;;9.50;;
76896;SDS011;65856;52.178;21.176;2023-12-28T09:00:09;22.40;;;9.00;;
76896;SDS011;65856;52.178;21.176;2023-12-28T09:02:35;21.00;;;8.90;;
76896;SDS011;65856;52.178;21.176;2023-12-28T09:05:01;19.60;;;9.10;;
76896;SDS011;65856;52.178;21.176;2023-12-28T09:07:26;19.30;;;9.50;;
76896;SDS011;65856;52.178;21.176;2023-12-28T09:09:52;21.20;;;8.80;;
76896;SDS011;65856;52.178;21.176;2023-12-28T09:12:17;22.70;;;9.20;;
76896;SDS011;65856;52.178;21.176;2023-12-28T09:14:43;20.40;;;8.90;;
76896;SDS011;65856;52.178;21.176;2023-12-28T09:17:08;15.30;;;8.00;;
76896;SDS011;65856;52.178;21.176;2023-12-28T09:19:34;16.30;;;7.80;;
76896;SDS011;65856;52.178;21.176;2023-12-28T09:21:59;19.30;;;8.30;;
76896;SDS011;65856;52.178;21.176;2023-12-28T09:24:25;19.10;;;8.70;;
76896;SDS011;65856;52.178;21.176;2023-12-28T09:26:50;16.30;;;7.80;;
76896;SDS011;65856;52.178;21.176;2023-12-28T09:29:15;18.90;;;7.70;;
76896;SDS011;65856;52.178;21.176;2023-12-28T09:31:41;20.40;;;8.30;;
76896;SDS011;65856;52.178;21.176;2023-12-28T09:34:06;16.80;;;7.80;;
76896;SDS011;65856;52.178;21.176;2023-12-28T09:36:31;16.80;;;8.20;;
76896;SDS011;65856;52.178;21.176;2023-12-28T09:38:57;16.30;;;7.90;;
76896;SDS011;65856;52.178;21.176;2023-12-28T09:41:26;16.30;;;7.80;;
76896;SDS011;65856;52.178;21.176;2023-12-28T09:44:14;14.70;;;7.50;;
76896;SDS011;65856;52.178;21.176;2023-12-28T09:46:43;15.80;;;7.20;;
76896;SDS011;65856;52.178;21.176;2023-12-28T09:49:11;16.70;;;7.90;;
76896;SDS011;65856;52.178;21.176;2023-12-28T09:51:36;19.30;;;7.70;;
76896;SDS011;65856;52.178;21.176;2023-12-28T09:54:05;18.90;;;7.70;;
76896;SDS011;65856;52.178;21.176;2023-12-28T09:56:32;18.80;;;7.70;;
76896;SDS011;65856;52.178;21.176;2023-12-28T09:58:58;16.80;;;7.70;;
76896;SDS011;65856;52.178;21.176;2023-12-28T10:01:24;17.90;;;7.90;;
76896;SDS011;65856;52.178;21.176;2023-12-28T10:03:49;15.90;;;8.40;;
76896;SDS011;65856;52.178;21.176;2023-12-28T10:06:15;17.50;;;8.10;;
76896;SDS011;65856;52.178;21.176;2023-12-28T10:08:50;18.70;;;8.20;;
76896;SDS011;65856;52.178;21.176;2023-12-28T10:11:17;16.90;;;7.90;;
76896;SDS011;65856;52.178;21.176;2023-12-28T10:13:44;18.60;;;9.20;;
76896;SDS011;65856;52.178;21.176;2023-12-28T10:16:11;14.60;;;7.40;;
76896;SDS011;65856;52.178;21.176;2023-12-28T10:18:43;14.40;;;7.70;;
76896;SDS011;65856;52.178;21.176;2023-12-28T10:21:09;18.40;;;8.90;;
76896;SDS011;65856;52.178;21.176;2023-12-28T10:23:36;15.60;;;8.40;;
76896;SDS011;65856;52.178;21.176;2023-12-28T10:26:04;15.40;;;8.00;;
76896;SDS011;65856;52.178;21.176;2023-12-28T10:28:33;15.80;;;7.20;;
76896;SDS011;65856;52.178;21.176;2023-12-28T10:31:00;17.20;;;7.30;;
76896;SDS011;65856;52.178;21.176;2023-12-28T10:33:26;13.20;;;6.60;;
76896;SDS011;65856;52.178;21.176;2023-12-28T10:36:05;15.70;;;6.60;;
76896;SDS011;65856;52.178;21.176;2023-12-28T10:38:34;12.00;;;6.10;;
76896;SDS011;65856;52.178;21.176;2023-12-28T10:41:04;13.50;;;6.60;;
76896;SDS011;65856;52.178;21.176;2023-12-28T10:43:36;13.60;;;6.60;;
76896;SDS011;65856;52.178;21.176;2023-12-28T10:46:07;10.80;;;5.20;;
76896;SDS011;65856;52.178;21.176;2023-12-28T10:48:37;11.00;;;4.90;;
76896;SDS011;65856;52.178;21.176;2023-12-28T10:51:06;10.10;;;4.30;;
76896;SDS011;65856;52.178;21.176;2023-12-28T10:53:38;10.10;;;4.20;;
76896;SDS011;65856;52.178;21.176;2023-12-28T10:56:48;9.80;;;4.80;;
76896;SDS011;65856;52.178;21.176;2023-12-28T11:02:15;7.80;;;4.40;;
76896;SDS011;65856;52.178;21.176;2023-12-28T11:04:48;9.20;;;4.70;;
76896;SDS011;65856;52.178;21.176;2023-12-28T11:07:16;7.20;;;4.20;;
76896;SDS011;65856;52.178;21.176;2023-12-28T11:09:43;8.70;;;4.50;;
76896;SDS011;65856;52.178;21.176;2023-12-28T11:12:09;8.90;;;4.70;;
76896;SDS011;65856;52.178;21.176;2023-12-28T11:14:42;9.70;;;5.00;;
76896;SDS011;65856;52.178;21.176;2023-12-28T11:17:09;9.00;;;4.30;;
76896;SDS011;65856;52.178;21.176;2023-12-28T11:19:36;8.70;;;4.00;;
76896;SDS011;65856;52.178;21.176;2023-12-28T11:22:03;8.70;;;4.40;;
76896;SDS011;65856;52.178;21.176;2023-12-28T11:24:30;12.10;;;5.80;;
76896;SDS011;65856;52.178;21.176;2023-12-28T11:26:56;9.10;;;5.10;;
76896;SDS011;65856;52.178;21.176;2023-12-28T11:29:23;9.50;;;4.60;;
76896;SDS011;65856;52.178;21.176;2023-12-28T11:31:57;9.00;;;4.20;;
76896;SDS011;65856;52.178;21.176;2023-12-28T11:34:31;7.40;;;4.30;;
76896;SDS011;65856;52.178;21.176;2023-12-28T11:37:04;10.30;;;4.70;;
76896;SDS011;65856;52.178;21.176;2023-12-28T11:39:34;7.70;;;3.50;;
76896;SDS011;65856;52.178;21.176;2023-12-28T11:42:01;7.10;;;3.70;;
76896;SDS011;65856;52.178;21.176;2023-12-28T11:44:29;9.60;;;4.30;;
76896;SDS011;65856;52.178;21.176;2023-12-28T11:47:24;9.40;;;4.20;;
76896;SDS011;65856;52.178;21.176;2023-12-28T11:49:51;8.30;;;4.30;;
76896;SDS011;65856;52.178;21.176;2023-12-28T11:52:28;8.30;;;4.30;;
76896;SDS011;65856;52.178;21.176;2023-12-28T11:54:55;7.70;;;4.40;;
76896;SDS011;65856;52.178;21.176;2023-12-28T11:57:21;10.80;;;4.80;;
76896;SDS011;65856;52.178;21.176;2023-12-28T11:59:57;10.00;;;4.50;;
76896;SDS011;65856;52.178;21.176;2023-12-28T12:02:24;8.20;;;4.50;;
76896;SDS011;65856;52.178;21.176;2023-12-28T12:04:50;9.30;;;4.50;;
76896;SDS011;65856;52.178;21.176;2023-12-28T12:07:15;8.80;;;4.40;;
76896;SDS011;65856;52.178;21.176;2023-12-28T12:09:42;8.20;;;4.80;;
76896;SDS011;65856;52.178;21.176;2023-12-28T12:12:08;8.50;;;4.60;;
76896;SDS011;65856;52.178;21.176;2023-12-28T12:14:34;8.90;;;4.50;;
76896;SDS011;65856;52.178;21.176;2023-12-28T12:17:00;7.00;;;4.20;;
76896;SDS011;65856;52.178;21.176;2023-12-28T12:19:29;9.90;;;5.10;;
76896;SDS011;65856;52.178;21.176;2023-12-28T12:21:55;10.10;;;5.10;;
76896;SDS011;65856;52.178;21.176;2023-12-28T12:24:22;9.00;;;4.50;;
76896;SDS011;65856;52.178;21.176;2023-12-28T12:26:49;11.10;;;4.80;;
76896;SDS011;65856;52.178;21.176;2023-12-28T12:29:16;9.00;;;4.50;;
76896;SDS011;65856;52.178;21.176;2023-12-28T12:31:42;9.30;;;4.70;;
76896;SDS011;65856;52.178;21.176;2023-12-28T12:34:14;10.60;;;4.80;;
76896;SDS011;65856;52.178;21.176;2023-12-28T12:36:40;10.60;;;4.90;;
76896;SDS011;65856;52.178;21.176;2023-12-28T12:39:06;8.30;;;4.30;;
76896;SDS011;65856;52.178;21.176;2023-12-28T12:41:33;11.20;;;4.60;;
76896;SDS011;65856;52.178;21.176;2023-12-28T12:43:59;8.10;;;4.40;;
76896;SDS011;65856;52.178;21.176;2023-12-28T12:46:25;10.20;;;5.10;;
76896;SDS011;65856;52.178;21.176;2023-12-28T12:48:57;8.90;;;5.00;;
76896;SDS011;65856;52.178;21.176;2023-12-28T12:51:25;12.30;;;5.70;;
76896;SDS011;65856;52.178;21.176;2023-12-28T12:53:56;11.00;;;5.30;;
76896;SDS011;65856;52.178;21.176;2023-12-28T12:56:26;9.10;;;5.30;;
76896;SDS011;65856;52.178;21.176;2023-12-28T12:58:52;8.60;;;4.80;;
76896;SDS011;65856;52.178;21.176;2023-12-28T13:01:18;12.00;;;5.00;;
76896;SDS011;65856;52.178;21.176;2023-12-28T13:03:45;9.00;;;4.70;;
76896;SDS011;65856;52.178;21.176;2023-12-28T13:06:11;9.40;;;5.00;;
76896;SDS011;65856;52.178;21.176;2023-12-28T13:08:36;11.00;;;4.80;;
76896;SDS011;65856;52.178;21.176;2023-12-28T13:11:02;9.70;;;5.00;;
76896;SDS011;65856;52.178;21.176;2023-12-28T13:13:27;9.90;;;4.80;;
76896;SDS011;65856;52.178;21.176;2023-12-28T13:15:53;10.50;;;5.00;;
76896;SDS011;65856;52.178;21.176;2023-12-28T13:18:18;8.50;;;4.50;;
76896;SDS011;65856;52.178;21.176;2023-12-28T13:20:44;6.80;;;4.10;;
76896;SDS011;65856;52.178;21.176;2023-12-28T13:23:11;9.20;;;4.30;;
76896;SDS011;65856;52.178;21.176;2023-12-28T13:25:37;9.60;;;4.50;;
76896;SDS011;65856;52.178;21.176;2023-12-28T13:28:02;9.90;;;4.20;;
76896;SDS011;65856;52.178;21.176;2023-12-28T13:30:28;7.90;;;4.40;;
76896;SDS011;65856;52.178;21.176;2023-12-28T13:32:54;11.30;;;4.80;;
76896;SDS011;65856;52.178;21.176;2023-12-28T13:35:23;10.40;;;4.80;;
76896;SDS011;65856;52.178;21.176;2023-12-28T13:37:49;10.30;;;5.00;;
76896;SDS011;65856;52.178;21.176;2023-12-28T13:40:14;9.30;;;4.60;;
76896;SDS011;65856;52.178;21.176;2023-12-28T13:42:41;7.90;;;4.20;;
76896;SDS011;65856;52.178;21.176;2023-12-28T13:45:07;9.30;;;4.70;;
76896;SDS011;65856;52.178;21.176;2023-12-28T13:47:33;8.10;;;4.40;;
76896;SDS011;65856;52.178;21.176;2023-12-28T13:49:58;9.20;;;4.80;;
76896;SDS011;65856;52.178;21.176;2023-12-28T13:52:23;9.60;;;4.50;;
76896;SDS011;65856;52.178;21.176;2023-12-28T13:54:49;9.80;;;4.90;;
76896;SDS011;65856;52.178;21.176;2023-12-28T13:57:14;9.90;;;4.50;;
76896;SDS011;65856;52.178;21.176;2023-12-28T13:59:40;8.00;;;4.50;;
76896;SDS011;65856;52.178;21.176;2023-12-28T14:02:05;10.70;;;5.10;;
76896;SDS011;65856;52.178;21.176;2023-12-28T14:04:31;10.30;;;5.00;;
76896;SDS011;65856;52.178;21.176;2023-12-28T14:06:56;9.30;;;4.70;;
76896;SDS011;65856;52.178;21.176;2023-12-28T14:09:22;12.80;;;5.30;;
76896;SDS011;65856;52.178;21.176;2023-12-28T14:11:47;10.50;;;4.50;;
76896;SDS011;65856;52.178;21.176;2023-12-28T14:14:13;10.20;;;4.80;;
76896;SDS011;65856;52.178;21.176;2023-12-28T14:16:39;10.00;;;5.10;;
76896;SDS011;65856;52.178;21.176;2023-12-28T14:19:04;9.90;;;4.80;;
76896;SDS011;65856;52.178;21.176;2023-12-28T14:21:37;10.60;;;4.90;;
76896;SDS011;65856;52.178;21.176;2023-12-28T14:24:04;10.10;;;5.10;;
76896;SDS011;65856;52.178;21.176;2023-12-28T14:26:32;10.70;;;5.10;;
76896;SDS011;65856;52.178;21.176;2023-12-28T14:28:59;9.10;;;5.00;;